Latest Weather Observations for Coldstream

IDV60901

Issued at 12:21 pm EDT Friday 4 December 2020 (issued every 10 minutes, with the page automatically refreshed every 10 minutes)

About weather observations | Map of Melbourne area stations | Latest observations for Melbourne area | Other Formats
Station Details ID: 086383 Name: COLDSTREAM Lat: -37.72 Lon: 145.41 Height: 83.0 m
Data from the previous 72 hours. | See also: Recent months at Coldstream
Date/Time
EDT
Temp
°C
App
Temp
°C
Dew
Point
°C
Rel
Hum
%
Delta-T
°C
Wind Press
QNH
hPa
Press
MSL
hPa
Rain since
9am
mm
Dir  Spd
km/h
Gust
km/h
Spd
kts
Gust
kts
04/12:00pm 19.5 16.4 8.8 50 5.6 W 15 24 8 13 1017.2 1017.0 0.0
04/11:30am 18.5 16.0 8.2 51 5.3 WNW 11 22 6 12 1017.5 1017.3 0.0
04/11:00am 17.8 15.6 7.8 52 5.1 WNW 9 17 5 9 1017.5 1017.3 0.0
04/10:30am 17.3 15.8 9.2 59 4.2 NW 7 11 4 6 1017.6 1017.4 0.0
04/10:00am 15.7 13.8 8.9 64 3.5 WSW 9 15 5 8 1017.9 1017.7 0.0
04/09:30am 15.2 12.5 9.1 67 3.1 W 13 19 7 10 1018.0 1017.8 0.0
04/09:00am 14.8 13.3 10.4 75 2.3 WSW 9 17 5 9 1018.0 1017.8 0.0
04/08:30am 13.5 12.0 10.7 83 1.5 W 9 13 5 7 1017.7 1017.5 0.0
04/08:00am 12.6 12.9 10.8 89 0.9 CALM 0 7 0 4 1017.3 1017.1 0.0
04/07:30am 12.0 12.6 12.0 100 0.0 CALM 0 0 0 0 1016.9 1016.7 0.0
04/07:00am 10.0 10.1 10.0 100 0.0 CALM 0 6 0 3 1016.7 1016.5 0.0
04/06:30am 6.8 6.1 6.8 100 0.0 CALM 0 0 0 0 1016.2 1016.0 0.0
04/06:00am 5.8 4.8 5.7 99 0.0 CALM 0 6 0 3 1016.0 1015.8 0.0
04/05:30am 6.1 5.2 6.0 99 0.0 CALM 0 0 0 0 1015.9 1015.7 0.0
04/05:00am 6.5 5.7 6.4 99 0.0 CALM 0 0 0 0 1015.8 1015.6 0.0
04/04:30am 6.7 5.9 6.6 99 0.0 CALM 0 0 0 0 1015.6 1015.4 0.0
04/04:00am 7.5 6.9 7.5 100 0.0 CALM 0 0 0 0 1015.7 1015.5 0.0
04/03:30am 7.4 6.8 7.3 99 0.0 CALM 0 0 0 0 1015.7 1015.5 0.0
04/03:00am 7.5 6.9 7.4 99 0.0 CALM 0 0 0 0 1015.8 1015.6 0.0
04/02:30am 7.9 7.4 7.8 99 0.0 CALM 0 0 0 0 1015.5 1015.3 0.0
04/02:00am 7.9 7.4 7.8 99 0.0 CALM 0 0 0 0 1015.5 1015.3 0.0
04/01:30am 8.5 8.1 8.4 99 0.0 CALM 0 0 0 0 1015.5 1015.3 0.0
04/01:00am 9.1 8.9 9.0 99 0.0 CALM 0 0 0 0 1015.8 1015.6 0.0
04/12:30am 10.1 10.2 10.0 99 0.1 CALM 0 0 0 0 1016.0 1015.8 0.0
04/12:00am 10.7 10.8 10.2 97 0.3 CALM 0 0 0 0 1016.3 1016.1 0.0
 
Date/Time
EDT
Temp
°C
App
Temp
°C
Dew
Point
°C
Rel
Hum
%
Delta-T
°C
Wind Press
QNH
hPa
Press
MSL
hPa
Rain since
9am
mm
Dir  Spd
km/h
Gust
km/h
Spd
kts
Gust
kts
03/11:30pm 11.4 11.7 10.8 96 0.3 CALM 0 0 0 0 1016.6 1016.4 0.0
03/11:00pm 12.6 12.8 10.5 87 1.1 CALM 0 0 0 0 1017.1 1016.9 0.0
03/10:30pm 14.2 14.5 10.8 80 1.8 CALM 0 2 0 1 1017.3 1017.1 0.0
03/10:00pm 15.3 14.7 10.3 72 2.6 N 4 9 2 5 1017.2 1017.0 0.0
03/09:30pm 16.8 14.3 9.7 63 3.7 SSE 13 20 7 11 1016.9 1016.7 0.0
03/09:00pm 17.5 14.9 9.4 59 4.2 SSE 13 26 7 14 1016.6 1016.4 0.0
03/08:30pm 18.1 15.7 8.7 54 4.9 SSE 11 19 6 10 1016.5 1016.3 0.0
03/08:00pm 19.6 16.7 8.0 47 6.0 SSE 13 22 7 12 1016.4 1016.2 0.0
03/07:30pm 21.3 19.0 7.5 41 7.1 SSE 9 15 5 8 1016.4 1016.2 0.0
03/07:00pm 22.1 19.2 6.7 37 7.9 SSE 11 20 6 11 1016.5 1016.3 0.0
03/06:30pm 23.0 19.3 6.3 34 8.5 S 15 24 8 13 1016.4 1016.2 0.0
03/06:00pm 24.5 23.9 7.2 33 9.1 CALM 0 0 0 0 1016.5 1016.3 0.0
03/05:30pm 24.9 24.1 6.6 31 9.5 CALM 0 0 0 0 1016.8 1016.6 0.0
03/05:00pm 24.5 22.8 5.8 30 9.6 W 4 17 2 9 1017.3 1017.1 0.0
03/04:30pm 24.7 22.0 7.4 33 9.1 W 11 17 6 9 1017.7 1017.5 0.0
03/04:00pm 23.8 21.5 4.7 29 9.5 NNE 6 13 3 7 1017.9 1017.7 0.0
03/03:30pm 23.9 21.5 7.1 34 8.8 S 9 13 5 7 1018.3 1018.1 0.0
03/03:00pm 22.5 19.8 5.4 33 8.6 SSE 9 15 5 8 1018.8 1018.6 0.0
03/02:30pm 22.2 20.0 6.0 35 8.2 SSW 7 13 4 7 1019.2 1019.0 0.0
03/02:00pm 21.5 20.4 7.0 39 7.4 SSE 2 17 1 9 1019.6 1019.4 0.0
03/01:30pm 20.2 17.7 6.5 41 6.9 NNW 9 17 5 9 1019.9 1019.7 0.0
03/01:00pm 20.0 16.9 5.6 39 7.1 W 11 20 6 11 1020.5 1020.3 0.0
03/12:30pm 18.7 16.1 6.2 44 6.2 NE 9 13 5 7 1021.0 1020.8 0.0
03/12:00pm 18.2 15.4 5.1 42 6.3 NNW 9 19 5 10 1021.5 1021.4 0.0
03/11:30am 17.7 15.7 7.2 50 5.3 WNW 7 17 4 9 1021.9 1021.8 0.0
03/11:00am 17.2 15.2 6.1 48 5.4 NE 6 13 3 7 1022.3 1022.2 0.0
03/10:30am 16.3 14.4 6.7 53 4.7 NW 6 9 3 5 1022.3 1022.2 0.0
03/10:00am 16.0 13.4 6.2 52 4.8 E 9 13 5 7 1022.8 1022.7 0.0
03/09:30am 15.2 13.5 7.5 60 3.8 E 6 13 3 7 1023.2 1023.1 0.0
03/09:00am 14.2 13.8 8.2 67 3.0 CALM 0 0 0 0 1023.6 1023.5 0.0
03/08:30am 12.4 12.2 8.9 79 1.8 CALM 0 0 0 0 1023.7 1023.6 0.0
03/08:00am 10.7 10.5 9.1 90 0.8 CALM 0 0 0 0 1023.6 1023.5 0.0
03/07:30am 9.3 9.0 8.8 97 0.2 CALM 0 0 0 0 1023.1 1023.0 0.0
03/07:00am 7.8 7.3 7.8 100 0.0 CALM 0 0 0 0 1022.8 1022.7 0.0
03/06:30am 5.5 4.1 5.4 99 0.0 N 2 6 1 3 1022.7 1022.6 0.0
03/06:00am 4.2 2.5 4.1 99 0.0 S 2 6 1 3 1022.7 1022.6 0.0
03/05:30am 4.5 3.3 4.4 99 0.0 CALM 0 0 0 0 1022.6 1022.5 0.0
03/05:00am 4.5 3.3 4.4 99 0.0 CALM 0 0 0 0 1022.5 1022.4 0.0
03/04:30am 5.6 4.6 5.5 99 0.0 CALM 0 6 0 3 1022.2 1022.1 0.0
03/04:00am 6.6 5.7 5.9 95 0.3 CALM 0 0 0 0 1021.8 1021.7 0.0
03/03:30am 8.2 6.0 6.3 88 0.9 SE 7 15 4 8 1021.6 1021.5 0.0
03/03:00am 8.1 5.4 7.5 96 0.3 SSE 11 19 6 10 1021.7 1021.6 0.0
03/02:30am 7.5 5.4 6.6 94 0.4 SE 7 11 4 6 1022.9 1022.8 0.0
03/02:00am 8.2 5.4 6.8 91 0.6 SE 11 13 6 7 1023.3 1023.2 0.0
03/01:30am 9.2 6.7 6.6 84 1.2 SSE 9 13 5 7 1023.6 1023.5 0.0
03/01:00am 9.6 7.6 6.9 83 1.3 SSE 7 13 4 7 1024.1 1024.0 0.0
03/12:30am 9.8 7.0 7.1 83 1.3 SSE 11 15 6 8 1024.5 1024.4 0.0
03/12:00am 10.0 6.9 7.1 82 1.4 SE 13 19 7 10 1024.7 1024.6 0.0
 
Date/Time
EDT
Temp
°C
App
Temp
°C
Dew
Point
°C
Rel
Hum
%
Delta-T
°C
Wind Press
QNH
hPa
Press
MSL
hPa
Rain since
9am
mm
Dir  Spd
km/h
Gust
km/h
Spd
kts
Gust
kts
02/11:30pm 10.2 8.4 7.3 82 1.4 S 6 9 3 5 1024.9 1024.8 0.0
02/11:00pm 11.2 8.5 7.3 77 1.9 SSE 11 17 6 9 1025.0 1024.9 0.0
02/10:30pm 11.1 8.0 7.2 77 1.9 SSE 13 17 7 9 1025.2 1025.1 0.0
02/10:00pm 11.9 8.8 7.2 73 2.3 SSE 13 19 7 10 1025.0 1024.9 0.0
02/09:30pm 12.4 9.0 7.5 72 2.4 SSE 15 22 8 12 1024.8 1024.7 0.0
02/09:00pm 12.9 9.5 7.8 71 2.5 SE 15 20 8 11 1024.4 1024.3 0.0
02/08:30pm 13.8 11.4 7.1 64 3.3 SSE 9 13 5 7 1024.3 1024.2 0.0
02/08:00pm 15.1 12.4 7.2 59 3.9 S 11 17 6 9 1024.2 1024.1 0.0
02/07:30pm 16.3 13.1 6.7 53 4.7 S 13 17 7 9 1024.0 1023.9 0.0
02/07:00pm 17.2 13.6 6.7 50 5.2 SSE 15 24 8 13 1023.6 1023.5 0.0
02/06:30pm 18.5 15.3 5.0 41 6.5 SSW 11 20 6 11 1023.3 1023.2 0.0
02/06:00pm 18.2 14.9 4.7 41 6.5 SSW 11 20 6 11 1023.1 1023.0 0.0
02/05:30pm 18.9 14.9 5.0 40 6.8 SW 15 26 8 14 1022.9 1022.8 0.0
02/05:00pm 18.6 15.5 5.5 42 6.4 SW 11 20 6 11 1022.8 1022.7 0.0
02/04:30pm 19.9 17.1 7.0 43 6.6 SSW 11 17 6 9 1022.8 1022.7 0.0
02/04:00pm 19.1 14.7 4.8 39 6.9 WSW 17 26 9 14 1023.1 1023.0 0.0
02/03:30pm 19.8 15.7 6.2 41 6.8 WSW 17 30 9 16 1023.2 1023.1 0.0
02/03:00pm 17.8 14.6 5.1 43 6.1 SSE 11 24 6 13 1023.1 1023.0 0.0
02/02:30pm 19.0 15.2 4.0 37 7.1 SSW 13 20 7 11 1023.2 1023.1 0.0
02/02:00pm 18.8 14.9 5.3 41 6.6 WSW 15 24 8 13 1023.0 1022.9 0.0
02/01:30pm 18.0 14.0 2.7 36 7.0 S 13 22 7 12 1023.3 1023.2 0.0
02/01:00pm 18.0 15.7 5.6 44 6.0 SSW 7 11 4 6 1023.5 1023.4 0.0
02/12:30pm 18.0 14.3 4.2 40 6.6 SW 13 26 7 14 1023.8 1023.7 0.0
02/12:00pm 17.2 12.9 3.5 40 6.3 SW 15 28 8 15 1023.7 1023.6 0.0
02/11:30am 16.4 12.6 5.7 49 5.2 SW 15 28 8 15 1023.7 1023.6 0.0
02/11:00am 17.0 13.8 5.0 45 5.7 SW 11 17 6 9 1023.5 1023.4 0.0
02/10:30am 15.5 12.0 5.4 51 4.8 WSW 13 28 7 15 1023.2 1023.1 0.0
02/10:00am 14.5 10.7 5.6 55 4.2 WSW 15 24 8 13 1023.2 1023.1 0.0
02/09:30am 14.1 10.7 5.7 57 4.0 WNW 13 20 7 11 1023.0 1022.9 0.0
02/09:00am 14.1 10.7 5.7 57 4.0 W 13 20 7 11 1022.7 1022.6 1.4
02/08:30am 13.3 10.8 6.4 63 3.3 NW 9 15 5 8 1022.2 1022.1 1.4
02/08:00am 12.6 9.7 6.4 66 2.9 NW 11 20 6 11 1021.6 1021.5 1.4
02/07:30am 11.9 9.3 6.2 68 2.7 NE 9 15 5 8 1021.1 1021.0 1.4
02/07:00am 10.5 9.5 7.4 81 1.5 NNE 2 7 1 4 1020.6 1020.4 1.4
02/06:30am 9.0 8.2 6.3 83 1.2 CALM 0 0 0 0 1020.4 1020.2 1.4
02/06:00am 9.5 7.1 5.3 75 1.9 NNW 7 11 4 6 1019.9 1019.7 1.4
02/05:30am 10.0 7.5 5.0 71 2.3 NNW 7 11 4 6 1019.5 1019.3 1.4
02/05:00am 10.5 7.6 4.9 68 2.5 NNW 9 17 5 9 1019.0 1018.8 1.4
02/04:30am 10.5 8.4 5.9 73 2.1 N 6 9 3 5 1018.6 1018.4 1.4
02/04:00am 10.5 8.1 5.3 70 2.4 N 7 9 4 5 1018.2 1018.0 1.4
02/03:30am 10.8 8.3 4.9 67 2.7 N 7 9 4 5 1018.1 1017.9 1.4
02/03:00am 10.1 7.9 5.3 72 2.2 N 6 7 3 4 1018.0 1017.8 1.4
02/02:30am 11.5 8.4 3.8 59 3.4 NW 9 17 5 9 1018.0 1017.8 1.4
02/02:00am 12.1 8.3 3.9 57 3.7 NW 13 20 7 11 1017.9 1017.7 1.4
02/01:30am 12.8 9.5 4.5 57 3.8 WNW 11 19 6 10 1017.6 1017.4 1.4
02/01:00am 12.7 9.4 4.7 58 3.7 W 11 15 6 8 1017.5 1017.3 1.4
02/12:30am 13.2 9.1 4.1 54 4.2 W 15 22 8 12 1017.2 1017.0 1.4
02/12:00am 13.5 9.0 4.1 53 4.3 W 17 26 9 14 1016.9 1016.7 1.4
 
Date/Time
EDT
Temp
°C
App
Temp
°C
Dew
Point
°C
Rel
Hum
%
Delta-T
°C
Wind Press
QNH
hPa
Press
MSL
hPa
Rain since
9am
mm
Dir  Spd
km/h
Gust
km/h
Spd
kts
Gust
kts
01/11:30pm 14.2 9.8 4.8 53 4.4 W 17 30 9 16 1016.6 1016.4 1.4
01/11:00pm 14.3 10.7 5.1 54 4.3 W 13 19 7 10 1016.4 1016.2 1.4
01/10:30pm 14.7 10.9 5.8 55 4.3 W 15 24 8 13 1015.8 1015.6 1.4
01/10:00pm 15.8 11.4 4.8 48 5.2 W 17 28 9 15 1015.2 1015.0 1.4
01/09:30pm 16.3 11.7 5.6 49 5.2 WSW 19 30 10 16 1014.4 1014.2 1.4
01/09:00pm 16.9 12.1 5.8 48 5.4 SW 20 35 11 19 1013.3 1013.2 1.4
01/08:30pm 17.5 13.7 7.5 52 5.1 SW 17 28 9 15 1012.3 1012.2 1.4
01/08:00pm 19.0 15.3 7.8 48 5.8 WSW 17 26 9 14 1011.4 1011.3 1.4
01/07:30pm 19.7 14.5 7.4 45 6.3 WSW 24 46 13 25 1010.5 1010.3 1.4
01/07:00pm 20.2 16.8 10.6 54 5.2 WSW 19 35 10 19 1009.7 1009.5 1.4
01/06:30pm 21.4 17.3 11.4 53 5.6 WSW 24 39 13 21 1009.0 1008.8 1.4
01/06:00pm 19.9 15.9 11.9 60 4.5 WSW 24 48 13 26 1008.5 1008.3 1.4
01/05:30pm 20.4 18.4 12.6 61 4.4 SW 15 28 8 15 1008.2 1008.0 1.4
01/05:00pm 20.3 18.0 14.2 68 3.6 SW 19 30 10 16 1007.5 1007.3 1.4
01/04:30pm 20.1 19.4 16.5 80 2.2 WSW 15 24 8 13 1007.1 1006.9 1.4
01/04:00pm 18.4 17.9 15.8 85 1.5 WSW 13 24 7 13 1007.0 1006.8 1.4
01/03:30pm 23.1 22.2 15.9 64 4.4 NNW 15 26 8 14 1005.7 1005.5 1.0
01/03:00pm 21.6 20.3 14.7 65 4.1 NNW 15 24 8 13 1005.9 1005.7 1.0
01/02:30pm 21.8 19.4 14.4 63 4.3 NNW 20 35 11 19 1005.8 1005.6 1.0
01/02:00pm 20.8 18.9 15.8 73 3.0 N 20 39 11 21 1005.7 1005.5 1.0
01/01:30pm 20.0 19.5 15.8 77 2.5 N 13 24 7 13 1005.2 1005.0 1.0
01/01:00pm 19.5 18.9 15.6 78 2.3 N 13 19 7 10 1005.2 1005.0 0.8
01/12:30pm 21.4 18.3 13.3 60 4.7 NW 22 44 12 24 1007.0 1006.8 0.0

Latest Capital City Observations: Canberra | Sydney | Melbourne | Brisbane | Adelaide | Perth | Hobart | Darwin

Other formats

Comma delimited format used in spreadsheet applications
http://www.bom.gov.au/fwo/IDV60901/IDV60901.94864.axf

JavaScript Object Notation format (JSON) in row-major order
http://www.bom.gov.au/fwo/IDV60901/IDV60901.94864.json

Data quality

Most of these data are generated automatically and are frequently updated. Quality checks on data are not normally performed. It is possible for incorrect values to appear. Refer to information at About Latest Weather Observations and please check the disclaimer before using these data.